Time;durP1;ratioP1;P1;durP2;ratioP2;P2;SDS_P1;SDS_P2;PMS_P1;PMS_P2;Temp;Humidity;BMP_temperature;BMP_pressure;BME280_temperature;BME280_humidity;BME280_pressure;Samples;Min_cycle;Max_cycle;Signal;HPM_P1;HPM_P2
2022/03/22 00:00:34;;;;;;;;;;;2.30;60.80;;;;;;4147271;28;20042;-80
2022/03/22 00:02:35;;;;;;;26.67;13.50;;;2.30;60.90;;;;;;4134145;28;19909;-80
2022/03/22 00:04:36;;;;;;;27.80;12.43;;;2.30;60.70;;;;;;4132459;28;20042;-80
2022/03/22 00:06:37;;;;;;;22.55;12.02;;;2.30;60.60;;;;;;4133706;28;20023;-80
2022/03/22 00:08:37;;;;;;;25.25;12.05;;;2.30;60.60;;;;;;4096307;28;20038;-80
2022/03/22 00:10:44;;;;;;;24.38;12.05;;;2.30;60.60;;;;;;4129381;28;20034;-80
2022/03/22 00:12:45;;;;;;;29.25;14.02;;;2.30;61.30;;;;;;4146536;28;20072;-80
2022/03/22 00:15:06;;;;;;;22.55;12.02;;;2.30;60.50;;;;;;4135810;28;20032;-79
2022/03/22 00:17:27;;;;;;;24.30;11.50;;;2.30;60.30;;;;;;4127032;28;20044;-78
2022/03/22 00:19:27;;;;;;;24.02;12.60;;;2.30;60.10;;;;;;4140588;28;20042;-78
2022/03/22 00:21:28;;;;;;;29.58;12.70;;;2.30;60.00;;;;;;4130387;28;20049;-78
2022/03/22 00:23:29;;;;;;;23.73;11.98;;;2.30;59.90;;;;;;4123685;28;20030;-79
2022/03/22 00:25:30;;;;;;;25.95;11.77;;;2.40;60.60;;;;;;4109340;28;20101;-79
2022/03/22 00:30:05;;;;;;;24.42;11.70;;;2.40;59.60;;;;;;4100512;28;20034;-79
2022/03/22 00:32:08;;;;;;;22.63;12.20;;;2.40;59.40;;;;;;4145973;28;20036;-79
2022/03/22 00:34:13;;;;;;;22.60;11.73;;;2.40;59.20;;;;;;4128929;28;20487;-79
2022/03/22 00:36:14;;;;;;;22.95;11.98;;;2.40;59.10;;;;;;4130395;28;20047;-79
2022/03/22 00:38:16;;;;;;;21.30;10.90;;;2.40;58.90;;;;;;4134388;28;20034;-79
2022/03/22 00:40:19;;;;;;;22.08;11.77;;;2.40;58.80;;;;;;4131250;28;20030;-78
2022/03/22 00:42:53;;;;;;;22.05;11.18;;;2.40;58.60;;;;;;4144646;28;20034;-80
2022/03/22 00:45:16;;;;;;;21.92;11.10;;;2.40;58.50;;;;;;4134063;28;20035;-79
2022/03/22 00:47:17;;;;;;;20.23;10.85;;;2.40;58.40;;;;;;4144292;28;20100;-78
2022/03/22 00:49:18;;;;;;;20.60;10.80;;;2.30;58.30;;;;;;4147200;28;20116;-78
2022/03/22 00:51:23;;;;;;;26.00;12.48;;;2.30;58.30;;;;;;4129677;28;20038;-78
2022/03/22 00:53:24;;;;;;;22.60;11.90;;;2.20;58.30;;;;;;4135553;28;20084;-78
2022/03/22 00:55:27;;;;;;;26.08;12.07;;;2.20;58.40;;;;;;4130944;28;20030;-78
2022/03/22 00:57:27;;;;;;;23.85;11.50;;;2.10;58.30;;;;;;4128897;28;20495;-78
2022/03/22 01:01:54;;;;;;;22.40;12.00;;;2.10;58.50;;;;;;4144925;28;20026;-79
2022/03/22 01:04:04;;;;;;;30.20;11.13;;;2.00;58.00;;;;;;4105312;28;20205;-79
2022/03/22 01:06:08;;;;;;;23.63;11.95;;;2.00;58.70;;;;;;4127884;28;20447;-78
2022/03/22 01:08:14;;;;;;;22.88;12.43;;;2.00;58.70;;;;;;4137904;28;20078;-79
2022/03/22 01:10:15;;;;;;;25.42;12.65;;;1.90;58.80;;;;;;4133135;28;20503;-79
2022/03/22 01:12:18;;;;;;;24.35;12.10;;;1.90;58.80;;;;;;4128154;28;20097;-79
2022/03/22 01:14:21;;;;;;;;;;;1.90;58.90;;;;;;4131637;28;20105;-79
2022/03/22 01:17:16;;;;;;;21.90;11.05;;;1.90;59.10;;;;;;4130322;28;19965;-80
2022/03/22 01:19:21;;;;;;;23.80;11.30;;;1.90;59.10;;;;;;4129920;28;20032;-78
2022/03/22 01:21:28;;;;;;;21.35;11.32;;;1.90;59.10;;;;;;4141978;28;20030;-78
2022/03/22 01:23:29;;;;;;;27.02;12.43;;;1.80;59.20;;;;;;4128327;28;20039;-78
2022/03/22 01:25:30;;;;;;;23.20;11.73;;;1.80;59.20;;;;;;4126800;28;20042;-78
2022/03/22 01:27:32;;;;;;;32.20;12.93;;;1.80;59.30;;;;;;4124188;28;20076;-79
2022/03/22 01:29:34;;;;;;;21.42;10.75;;;1.80;59.30;;;;;;4124953;28;20460;-79
2022/03/22 01:31:36;;;;;;;24.23;12.00;;;1.80;59.30;;;;;;4127167;28;20076;-78
2022/03/22 01:33:37;;;;;;;21.95;11.95;;;1.80;59.30;;;;;;4143089;28;20030;-78
2022/03/22 01:35:39;;;;;;;28.48;12.50;;;1.80;59.30;;;;;;4112683;28;20640;-78
2022/03/22 01:37:42;;;;;;;25.60;12.02;;;1.80;59.20;;;;;;4127528;28;20409;-79
2022/03/22 01:39:43;;;;;;;26.85;12.48;;;1.80;59.20;;;;;;4130048;28;20034;-79
2022/03/22 01:41:44;;;;;;;24.95;12.75;;;1.80;59.20;;;;;;4128304;28;20479;-78
2022/03/22 01:43:44;;;;;;;23.55;11.85;;;1.80;59.20;;;;;;4147916;28;20022;-78
2022/03/22 01:45:46;;;;;;;24.80;11.30;;;1.80;59.20;;;;;;4141282;28;20070;-78
2022/03/22 01:47:47;;;;;;;22.58;11.40;;;1.80;59.20;;;;;;4128713;28;20415;-79
2022/03/22 01:49:48;;;;;;;27.98;12.80;;;1.80;59.00;;;;;;4113909;28;20490;-79
2022/03/22 01:51:49;;;;;;;22.88;12.10;;;1.70;59.00;;;;;;4114851;28;20046;-79
2022/03/22 01:53:51;;;;;;;29.92;14.38;;;1.70;58.90;;;;;;4113106;28;20265;-79
2022/03/22 01:55:51;;;;;;;25.63;13.07;;;1.70;58.90;;;;;;4144232;28;20085;-79
2022/03/22 01:57:54;;;;;;;24.63;12.55;;;1.70;59.00;;;;;;4134614;28;20080;-79
2022/03/22 01:59:55;;;;;;;30.83;11.93;;;1.70;59.20;;;;;;4120869;28;20050;-79
2022/03/22 02:06:40;;;;;;;21.58;11.88;;;1.60;59.40;;;;;;4126320;28;20038;-79
2022/03/22 02:08:42;;;;;;;21.17;11.55;;;1.60;59.50;;;;;;4142430;28;20110;-79
2022/03/22 02:11:02;;;;;;;23.10;11.65;;;1.60;59.40;;;;;;4117491;28;20034;-80
2022/03/22 02:13:08;;;;;;;22.88;11.23;;;1.50;59.30;;;;;;4129920;28;20018;-80
2022/03/22 02:15:09;;;;;;;23.92;12.20;;;1.50;59.20;;;;;;4129102;28;20022;-79
2022/03/22 02:17:10;;;;;;;30.92;12.75;;;1.50;59.20;;;;;;4131760;28;20038;-79
2022/03/22 02:19:15;;;;;;;26.70;13.07;;;1.50;59.70;;;;;;4139570;28;20255;-79
2022/03/22 02:21:19;;;;;;;26.08;12.95;;;1.50;59.40;;;;;;4130209;28;20355;-80
2022/03/22 02:23:21;;;;;;;21.48;11.15;;;1.40;59.40;;;;;;4127435;28;20510;-80
2022/03/22 02:25:23;;;;;;;22.25;11.48;;;1.40;59.50;;;;;;4124159;28;20117;-79
2022/03/22 02:27:30;;;;;;;21.80;11.07;;;1.40;59.50;;;;;;4127937;28;20061;-79
2022/03/22 02:29:43;;;;;;;23.52;11.02;;;1.30;59.50;;;;;;4138104;28;20535;-78
2022/03/22 02:31:44;;;;;;;24.08;12.00;;;1.40;59.60;;;;;;4146070;28;20018;-79
2022/03/22 02:33:46;;;;;;;23.02;11.57;;;1.30;59.60;;;;;;4130693;28;20029;-79
2022/03/22 02:35:47;;;;;;;22.13;10.98;;;1.30;59.70;;;;;;4134335;28;20077;-79
2022/03/22 02:37:48;;;;;;;23.83;11.48;;;1.30;59.70;;;;;;4125665;28;20030;-79
2022/03/22 02:39:50;;;;;;;19.98;10.50;;;1.20;59.70;;;;;;4112622;28;20111;-79
2022/03/22 02:41:53;;;;;;;23.90;12.25;;;1.20;59.80;;;;;;4129373;28;20041;-79
2022/03/22 02:43:54;;;;;;;23.17;12.23;;;1.20;59.90;;;;;;4143262;28;20463;-79
2022/03/22 02:45:55;;;;;;;25.08;12.70;;;1.10;59.80;;;;;;4134014;28;20045;-79
2022/03/22 02:47:58;;;;;;;22.55;11.52;;;1.10;59.90;;;;;;4129466;28;20034;-79
2022/03/22 02:50:02;;;;;;;26.58;12.35;;;1.00;59.90;;;;;;4124833;28;20042;-79
2022/03/22 02:52:04;;;;;;;23.90;10.60;;;1.00;60.00;;;;;;4127677;28;20038;-79
2022/03/22 02:54:06;;;;;;;25.67;12.40;;;1.00;60.20;;;;;;4139637;28;20061;-79
2022/03/22 02:56:06;;;;;;;30.30;12.93;;;0.90;60.20;;;;;;4124553;28;20464;-79
2022/03/22 02:58:08;;;;;;;29.80;12.95;;;0.90;60.30;;;;;;4116435;28;20100;-79
2022/03/22 03:00:13;;;;;;;27.48;12.73;;;0.90;60.50;;;;;;4125808;28;20038;-79
2022/03/22 03:02:14;;;;;;;26.98;12.75;;;0.80;60.70;;;;;;4121920;28;20133;-79
2022/03/22 03:04:16;;;;;;;25.20;12.90;;;0.80;60.80;;;;;;4107153;28;20035;-79
2022/03/22 03:06:17;;;;;;;26.42;12.48;;;0.80;61.00;;;;;;4136696;28;20089;-79
2022/03/22 03:08:18;;;;;;;28.85;12.65;;;0.80;61.20;;;;;;4129133;28;20042;-78
2022/03/22 03:10:24;;;;;;;26.77;12.45;;;0.80;61.30;;;;;;4140503;28;20040;-79
2022/03/22 03:12:25;;;;;;;21.40;10.73;;;0.80;62.10;;;;;;4136444;28;20048;-79
2022/03/22 03:14:40;;;;;;;24.63;11.85;;;0.80;61.40;;;;;;4131885;28;20030;-79
2022/03/22 03:16:44;;;;;;;22.52;10.90;;;0.70;61.30;;;;;;4115577;28;20023;-79
2022/03/22 03:18:46;;;;;;;22.17;11.55;;;0.70;61.20;;;;;;4124605;28;20034;-79
2022/03/22 03:21:01;;;;;;;23.55;12.00;;;0.70;61.20;;;;;;4122808;28;20039;-80
2022/03/22 03:23:09;;;;;;;24.65;11.30;;;0.70;61.20;;;;;;4123932;28;20105;-79
2022/03/22 03:25:10;;;;;;;23.27;11.93;;;0.60;61.30;;;;;;4142629;28;20404;-79
2022/03/22 03:27:11;;;;;;;28.02;12.45;;;0.60;61.30;;;;;;4130884;28;20034;-79
2022/03/22 03:29:13;;;;;;;22.63;11.52;;;0.60;61.40;;;;;;4140789;28;20038;-79
2022/03/22 03:31:14;;;;;;;25.17;11.88;;;0.50;61.40;;;;;;4146309;28;20380;-79
2022/03/22 03:33:16;;;;;;;22.88;11.82;;;0.50;61.40;;;;;;4130964;28;20094;-79
2022/03/22 03:35:26;;;;;;;23.88;10.90;;;0.50;61.50;;;;;;4124875;28;20068;-79
2022/03/22 03:37:34;;;;;;;22.38;11.05;;;0.50;61.60;;;;;;4136336;28;20479;-79
2022/03/22 03:39:40;;;;;;;34.40;11.25;;;0.50;61.70;;;;;;4127736;28;20041;-79
2022/03/22 03:42:00;;;;;;;27.67;12.18;;;0.50;61.80;;;;;;4141890;28;20032;-79
2022/03/22 03:47:03;;;;;;;24.38;11.93;;;0.40;61.90;;;;;;4139691;28;20029;-79
2022/03/22 03:48:47;;;;;;;24.05;12.18;;;0.30;62.20;;;;;;4127961;28;20764;-79
2022/03/22 03:50:52;;;;;;;25.98;12.82;;;0.30;62.20;;;;;;4128925;28;20053;-79
2022/03/22 03:52:53;;;;;;;23.88;12.35;;;0.20;62.10;;;;;;4123589;28;20141;-79
2022/03/22 03:54:55;;;;;;;27.45;12.48;;;0.20;62.20;;;;;;4126046;28;20022;-79
2022/03/22 03:56:56;;;;;;;26.70;13.18;;;0.20;62.40;;;;;;4148600;28;20050;-79
2022/03/22 03:59:01;;;;;;;22.45;12.07;;;0.20;62.60;;;;;;4146260;28;20028;-79
2022/03/22 04:01:08;;;;;;;23.77;12.77;;;0.20;63.40;;;;;;4127401;28;20038;-79
2022/03/22 04:03:14;;;;;;;27.33;13.88;;;0.20;62.90;;;;;;4144995;28;20076;-79
2022/03/22 04:05:23;;;;;;;28.73;13.65;;;0.20;63.00;;;;;;4146462;28;20525;-80
2022/03/22 04:07:25;;;;;;;37.40;14.45;;;0.10;63.10;;;;;;4131526;28;20033;-80
2022/03/22 04:09:28;;;;;;;29.63;13.88;;;0.10;63.20;;;;;;4146130;28;20022;-79
2022/03/22 04:11:29;;;;;;;;;;;0.10;63.20;;;;;;4143509;28;20045;-80
2022/03/22 04:13:31;;;;;;;23.83;12.30;;;0.20;63.50;;;;;;4147421;28;20405;-80
2022/03/22 04:15:33;;;;;;;28.35;11.85;;;0.10;63.10;;;;;;4145914;28;20038;-79
2022/03/22 04:17:34;;;;;;;27.65;12.82;;;0.10;63.20;;;;;;4137638;28;20108;-79
2022/03/22 04:19:38;;;;;;;28.77;13.43;;;0.10;63.30;;;;;;4133428;28;20033;-79
2022/03/22 04:21:39;;;;;;;29.20;13.85;;;0.10;63.40;;;;;;4127132;28;20522;-79
2022/03/22 04:23:39;;;;;;;35.90;14.13;;;0.10;63.40;;;;;;4142544;28;20388;-79
2022/03/22 04:25:42;;;;;;;42.92;13.82;;;0.10;63.60;;;;;;4097892;28;20047;-79
2022/03/22 04:33:04;;;;;;;29.70;13.05;;;0.00;63.80;;;;;;4123431;28;20109;-79
2022/03/22 04:35:27;;;;;;;27.08;12.80;;;0.10;64.20;;;;;;4130032;28;20050;-79
2022/03/22 04:37:29;;;;;;;34.17;13.30;;;0.00;64.20;;;;;;4145020;28;20030;-78
2022/03/22 04:39:31;;;;;;;30.05;14.02;;;0.10;64.30;;;;;;4142740;28;20026;-78
2022/03/22 04:41:37;;;;;;;33.88;15.07;;;0.10;64.50;;;;;;4132882;28;20039;-78
2022/03/22 04:43:38;;;;;;;35.28;15.23;;;0.10;64.40;;;;;;4144913;28;20036;-79
2022/03/22 04:45:41;;;;;;;31.08;13.80;;;0.10;64.60;;;;;;4132529;28;20038;-78
2022/03/22 04:47:45;;;;;;;;;;;0.10;64.70;;;;;;4128871;28;20531;-78
2022/03/22 04:49:46;;;;;;;28.80;13.13;;;0.10;64.90;;;;;;4125837;28;19922;-78
2022/03/22 04:56:46;;;;;;;25.10;12.20;;;0.10;64.20;;;;;;4148202;28;20033;-78
2022/03/22 04:58:52;;;;;;;28.98;12.57;;;0.10;63.90;;;;;;4144942;28;20030;-78
2022/03/22 05:00:53;;;;;;;;;;;0.10;63.90;;;;;;4146218;28;20057;-78
2022/03/22 05:02:56;;;;;;;26.55;12.20;;;0.10;64.10;;;;;;4147398;28;20378;-78
2022/03/22 05:05:04;;;;;;;30.02;13.45;;;0.10;63.80;;;;;;4131251;28;20177;-79
2022/03/22 05:07:05;;;;;;;26.10;12.30;;;0.00;63.90;;;;;;4133402;28;20050;-79
2022/03/22 05:09:10;;;;;;;28.20;13.15;;;0.00;64.10;;;;;;4143346;28;20040;-78
2022/03/22 05:11:11;;;;;;;31.77;14.05;;;-0.10;64.00;;;;;;4131155;28;20041;-78
2022/03/22 05:13:12;;;;;;;33.38;16.00;;;-0.10;65.00;;;;;;4109168;28;20038;-78
2022/03/22 05:15:17;;;;;;;32.55;15.43;;;-0.10;64.30;;;;;;4110305;28;20039;-78
2022/03/22 05:17:30;;;;;;;32.22;15.18;;;-0.10;64.70;;;;;;4128923;28;20140;-79
2022/03/22 05:19:31;;;;;;;30.80;15.13;;;-0.10;65.10;;;;;;4113785;28;20114;-78
2022/03/22 05:21:33;;;;;;;29.08;15.13;;;-0.10;65.20;;;;;;4123900;28;20053;-77
2022/03/22 05:23:34;;;;;;;30.60;15.65;;;-0.10;65.50;;;;;;4124411;28;20692;-78
2022/03/22 05:25:59;;;;;;;31.88;15.32;;;-0.10;65.60;;;;;;4125750;28;20037;-78
2022/03/22 05:28:03;;;;;;;28.45;13.73;;;-0.10;65.90;;;;;;4117935;28;20424;-79
2022/03/22 05:30:08;;;;;;;29.50;13.73;;;-0.10;65.90;;;;;;4134439;28;20046;-79
2022/03/22 05:32:09;;;;;;;29.45;14.23;;;-0.10;65.90;;;;;;4139057;28;20116;-79
2022/03/22 05:34:17;;;;;;;29.95;15.82;;;0.00;66.00;;;;;;4121769;28;20041;-79
2022/03/22 05:36:24;;;;;;;33.70;16.48;;;0.00;66.00;;;;;;4126723;28;20526;-79
2022/03/22 05:38:30;;;;;;;29.42;15.15;;;0.00;66.00;;;;;;4126697;28;20105;-79
2022/03/22 05:40:31;;;;;;;36.33;16.23;;;0.00;66.20;;;;;;4130553;28;20034;-79
2022/03/22 05:42:52;;;;;;;32.95;16.85;;;0.00;66.50;;;;;;4137855;28;20038;-78
2022/03/22 05:45:33;;;;;;;32.17;16.08;;;0.10;66.90;;;;;;4121190;28;20080;-78
2022/03/22 05:47:34;;;;;;;31.23;16.13;;;0.10;67.10;;;;;;4144330;28;20061;-78
2022/03/22 05:49:38;;;;;;;36.53;15.93;;;0.10;67.20;;;;;;4104957;28;20563;-78
2022/03/22 05:51:41;;;;;;;30.98;15.93;;;0.10;67.30;;;;;;4128021;28;20039;-78
2022/03/22 05:53:42;;;;;;;27.55;14.45;;;0.10;67.30;;;;;;4110996;28;20058;-78
2022/03/22 05:55:44;;;;;;;30.35;14.05;;;0.10;67.30;;;;;;4105328;28;20438;-78
2022/03/22 05:57:46;;;;;;;31.30;14.80;;;0.20;67.30;;;;;;4143627;28;20120;-78
2022/03/22 05:59:46;;;;;;;33.35;14.73;;;0.20;67.40;;;;;;4150691;28;20025;-79
2022/03/22 06:01:49;;;;;;;34.25;14.68;;;0.20;67.50;;;;;;4143900;28;20528;-78
2022/03/22 06:03:52;;;;;;;27.63;13.02;;;0.30;67.60;;;;;;4126106;28;20048;-78
2022/03/22 06:06:13;;;;;;;33.17;13.18;;;0.20;67.50;;;;;;4138856;28;20523;-79
2022/03/22 06:08:16;;;;;;;32.50;14.20;;;0.30;68.30;;;;;;4116347;28;20524;-78
2022/03/22 06:10:18;;;;;;;;;;;0.30;67.60;;;;;;4134992;28;20061;-79
2022/03/22 06:12:21;;;;;;;37.65;15.27;;;0.30;68.70;;;;;;4122854;28;19922;-79
2022/03/22 06:14:44;;;;;;;36.95;15.02;;;0.40;67.90;;;;;;4136160;28;20042;-78
2022/03/22 06:16:46;;;;;;;32.15;14.50;;;0.40;67.90;;;;;;4138579;28;20313;-78
2022/03/22 06:18:59;;;;;;;34.33;16.55;;;0.40;67.90;;;;;;4122653;28;20034;-78
2022/03/22 06:21:04;;;;;;;31.38;15.23;;;0.50;68.20;;;;;;4140880;28;20034;-78
2022/03/22 06:23:34;;;;;;;34.10;16.80;;;0.60;68.50;;;;;;4137950;28;20049;-78
2022/03/22 06:25:40;;;;;;;27.02;14.18;;;0.60;69.10;;;;;;4128942;28;20038;-78
2022/03/22 06:28:06;;;;;;;31.30;15.32;;;0.70;69.40;;;;;;4120034;28;20062;-79
2022/03/22 06:30:09;;;;;;;31.67;15.13;;;0.70;69.50;;;;;;4127845;28;20046;-78
2022/03/22 06:32:11;;;;;;;30.23;15.35;;;0.80;69.60;;;;;;4123335;28;20454;-78
2022/03/22 06:34:29;;;;;;;30.50;14.68;;;0.90;69.70;;;;;;4140998;28;20025;-78
2022/03/22 06:36:56;;;;;;;30.63;14.40;;;1.00;69.70;;;;;;4125188;28;20046;-79
2022/03/22 06:38:57;;;;;;;33.05;13.82;;;1.10;69.70;;;;;;4137937;28;20046;-79
2022/03/22 06:41:25;;;;;;;41.10;15.23;;;1.20;69.70;;;;;;4143681;28;20050;-79
2022/03/22 06:43:56;;;;;;;30.40;13.52;;;1.30;69.80;;;;;;4126676;28;20484;-79
2022/03/22 06:46:00;;;;;;;36.30;14.10;;;1.40;69.70;;;;;;4128040;28;20046;-78
2022/03/22 06:48:02;;;;;;;26.65;14.10;;;1.40;69.20;;;;;;4142587;28;20038;-79
2022/03/22 06:50:05;;;;;;;205.25;59.28;;;1.50;69.20;;;;;;4146830;28;20385;-79
2022/03/22 06:52:06;;;;;;;70.07;25.23;;;1.50;69.10;;;;;;4123907;28;20034;-78
2022/03/22 06:54:06;;;;;;;50.20;22.10;;;1.60;69.10;;;;;;4140268;28;20487;-78
2022/03/22 06:56:09;;;;;;;39.38;17.85;;;1.60;69.20;;;;;;4116251;28;20536;-78
2022/03/22 06:58:12;;;;;;;38.60;17.30;;;1.70;69.60;;;;;;4139282;28;20101;-78
2022/03/22 07:00:15;;;;;;;31.83;15.70;;;1.70;69.80;;;;;;4123006;28;20113;-78
2022/03/22 07:02:18;;;;;;;;;;;1.80;69.90;;;;;;4138383;28;20415;-78
2022/03/22 07:04:18;;;;;;;27.05;13.93;;;2.00;70.30;;;;;;4124475;28;19916;-78
2022/03/22 07:06:19;;;;;;;34.92;16.35;;;2.10;70.00;;;;;;4123249;28;20129;-78
2022/03/22 07:08:20;;;;;;;29.38;15.55;;;2.10;69.80;;;;;;4129343;28;20030;-78
2022/03/22 07:10:21;;;;;;;38.90;14.20;;;2.30;69.80;;;;;;4125449;28;20070;-78
2022/03/22 07:12:22;;;;;;;36.60;14.88;;;2.30;70.00;;;;;;4107491;28;20566;-78
2022/03/22 07:14:24;;;;;;;28.98;15.07;;;2.40;70.10;;;;;;4095493;28;20066;-78
2022/03/22 07:16:27;;;;;;;34.95;16.50;;;2.50;70.30;;;;;;4121897;28;20023;-78
2022/03/22 07:18:28;;;;;;;33.17;17.05;;;2.50;70.20;;;;;;4124736;28;20621;-78
2022/03/22 07:20:29;;;;;;;31.67;16.88;;;2.60;70.30;;;;;;4138166;28;20034;-78
2022/03/22 07:22:30;;;;;;;41.22;17.10;;;2.70;70.40;;;;;;4129872;28;20038;-78
2022/03/22 07:24:30;;;;;;;29.77;15.10;;;2.80;70.40;;;;;;4118636;28;20108;-78
2022/03/22 07:26:31;;;;;;;34.85;16.67;;;2.90;70.40;;;;;;4125454;28;20054;-79
2022/03/22 07:28:34;;;;;;;43.40;17.60;;;2.90;70.30;;;;;;4121151;28;20034;-78
2022/03/22 07:30:34;;;;;;;48.47;20.00;;;3.00;70.30;;;;;;4140323;28;20442;-78
2022/03/22 07:32:35;;;;;;;37.22;16.42;;;3.10;70.70;;;;;;4108520;28;20105;-78
2022/03/22 07:34:36;;;;;;;34.40;16.50;;;3.20;70.60;;;;;;4131566;28;20027;-78
2022/03/22 07:36:37;;;;;;;31.23;16.52;;;3.30;70.60;;;;;;4127851;28;20030;-78
2022/03/22 07:38:38;;;;;;;30.70;16.00;;;3.40;70.40;;;;;;4116290;28;20514;-78
2022/03/22 07:40:39;;;;;;;34.15;15.65;;;3.40;71.40;;;;;;4133393;28;20046;-78
2022/03/22 07:42:40;;;;;;;30.25;16.50;;;3.60;71.00;;;;;;4134679;28;20026;-78
2022/03/22 07:44:41;;;;;;;40.50;16.73;;;3.60;71.00;;;;;;4139557;28;20041;-78
2022/03/22 07:46:43;;;;;;;30.77;16.45;;;3.70;70.70;;;;;;4146605;28;20109;-78
2022/03/22 07:48:44;;;;;;;38.33;16.30;;;3.80;70.40;;;;;;4116434;28;20055;-78
2022/03/22 07:53:07;;;;;;;36.58;17.23;;;4.00;70.20;;;;;;4128764;28;20042;-78
2022/03/22 07:55:10;;;;;;;;;;;4.10;69.80;;;;;;4144335;28;20092;-78
2022/03/22 07:57:10;;;;;;;35.35;16.70;;;4.20;69.50;;;;;;4142908;28;19910;-78
2022/03/22 07:59:11;;;;;;;31.52;16.17;;;4.30;69.20;;;;;;4130183;28;20044;-78
2022/03/22 08:01:12;;;;;;;34.15;15.85;;;4.40;68.70;;;;;;4126817;28;20034;-78
2022/03/22 08:03:15;;;;;;;37.75;14.43;;;4.50;68.40;;;;;;4144871;28;20052;-78
2022/03/22 08:05:16;;;;;;;28.65;13.93;;;4.70;68.00;;;;;;4144707;28;20030;-78
2022/03/22 08:07:16;;;;;;;38.15;14.73;;;4.80;67.80;;;;;;4114690;28;20464;-78
2022/03/22 08:09:17;;;;;;;27.33;14.73;;;4.90;67.30;;;;;;4131209;28;20030;-78
2022/03/22 08:11:17;;;;;;;26.98;14.57;;;5.00;67.20;;;;;;4131773;28;20045;-78
2022/03/22 08:13:18;;;;;;;24.77;13.93;;;5.20;66.20;;;;;;4126626;28;20069;-78
2022/03/22 08:15:19;;;;;;;25.70;14.27;;;5.30;65.10;;;;;;4133638;28;20023;-78
2022/03/22 08:17:19;;;;;;;27.67;13.43;;;5.40;64.40;;;;;;4118410;28;20508;-78
2022/03/22 08:19:20;;;;;;;26.88;12.45;;;5.60;64.80;;;;;;4134276;28;20022;-78
2022/03/22 08:21:21;;;;;;;25.15;12.70;;;5.70;64.30;;;;;;4131046;28;20026;-78
2022/03/22 08:23:22;;;;;;;29.65;13.05;;;5.80;64.20;;;;;;4144154;28;20026;-78
2022/03/22 08:25:27;;;;;;;24.10;11.77;;;5.90;63.10;;;;;;4132414;28;20038;-78
2022/03/22 08:27:28;;;;;;;26.48;12.30;;;6.00;62.70;;;;;;4132342;28;20022;-77
2022/03/22 08:29:29;;;;;;;23.38;12.20;;;6.20;63.00;;;;;;4130772;28;20032;-78
2022/03/22 08:31:29;;;;;;;25.42;12.70;;;6.30;62.70;;;;;;4146555;28;20033;-78
2022/03/22 08:33:30;;;;;;;27.65;11.82;;;6.40;63.00;;;;;;4129047;28;20022;-78
2022/03/22 08:35:32;;;;;;;23.63;11.95;;;6.60;61.70;;;;;;4130644;28;20050;-78
2022/03/22 08:37:32;;;;;;;25.05;11.35;;;6.70;60.90;;;;;;4128251;28;20067;-78
2022/03/22 08:39:33;;;;;;;24.88;12.13;;;6.80;60.00;;;;;;4121917;28;20069;-78
2022/03/22 08:41:35;;;;;;;23.77;12.60;;;6.90;59.00;;;;;;4145150;28;20133;-78
2022/03/22 08:43:36;;;;;;;25.17;12.65;;;7.00;57.70;;;;;;4127303;28;20014;-78
2022/03/22 08:45:39;;;;;;;24.73;11.82;;;7.10;57.80;;;;;;4105645;28;20125;-78
2022/03/22 08:47:40;;;;;;;24.25;10.95;;;7.20;57.60;;;;;;4125717;28;20133;-78
2022/03/22 08:49:41;;;;;;;23.80;12.05;;;7.30;58.00;;;;;;4142375;28;20165;-78
2022/03/22 08:51:43;;;;;;;24.50;12.60;;;7.40;57.00;;;;;;4148620;28;20671;-78
2022/03/22 08:53:44;;;;;;;25.10;11.95;;;7.50;56.30;;;;;;4142082;28;20034;-78
2022/03/22 08:55:45;;;;;;;22.35;12.23;;;7.60;55.90;;;;;;4146990;28;20158;-78
2022/03/22 08:57:47;;;;;;;24.50;11.93;;;7.70;55.40;;;;;;4125143;28;20034;-78
2022/03/22 08:59:48;;;;;;;20.33;11.55;;;7.80;55.70;;;;;;4122011;28;20085;-78
2022/03/22 09:01:48;;;;;;;23.15;11.43;;;7.90;55.50;;;;;;4104632;28;20081;-78
2022/03/22 09:06:07;;;;;;;20.75;10.27;;;8.00;54.60;;;;;;4112172;28;20505;-77
2022/03/22 09:06:11;;;;;;;23.40;11.98;;;8.10;55.10;;;;;;4126291;28;20042;-77
2022/03/22 09:08:12;;;;;;;22.92;11.10;;;8.20;55.00;;;;;;4144346;28;20037;-77
2022/03/22 09:10:14;;;;;;;19.77;11.20;;;8.30;54.00;;;;;;4123259;28;20038;-77
2022/03/22 09:12:15;;;;;;;23.67;11.57;;;8.40;53.60;;;;;;4111242;28;20114;-77
2022/03/22 09:14:16;;;;;;;23.42;11.85;;;8.40;53.80;;;;;;4112618;28;20029;-77
2022/03/22 09:16:17;;;;;;;24.02;11.05;;;8.50;52.90;;;;;;4126566;28;20712;-77
2022/03/22 09:18:18;;;;;;;20.08;10.55;;;8.60;53.70;;;;;;4143825;28;20417;-77
2022/03/22 09:20:19;;;;;;;18.73;11.38;;;8.70;52.70;;;;;;4124481;28;20042;-77
2022/03/22 09:22:20;;;;;;;25.50;10.90;;;8.80;52.20;;;;;;4142478;28;20021;-77
2022/03/22 09:24:21;;;;;;;20.52;11.45;;;8.90;52.60;;;;;;4126440;28;20029;-77
2022/03/22 09:26:21;;;;;;;21.17;11.07;;;8.90;52.10;;;;;;4126323;28;20026;-77
2022/03/22 09:28:22;;;;;;;20.67;11.10;;;8.90;51.60;;;;;;4143530;28;20505;-77
2022/03/22 09:30:24;;;;;;;23.83;11.48;;;9.10;52.00;;;;;;4092912;28;20118;-77
2022/03/22 09:32:25;;;;;;;22.42;12.10;;;9.10;51.90;;;;;;4110419;28;20598;-78
2022/03/22 09:34:26;;;;;;;21.65;12.07;;;9.10;50.00;;;;;;4123394;28;20047;-78
2022/03/22 09:36:27;;;;;;;22.00;11.23;;;9.20;50.30;;;;;;4140030;28;20038;-78
2022/03/22 09:38:31;;;;;;;19.73;11.07;;;9.30;51.00;;;;;;4108875;28;20042;-77
2022/03/22 09:40:31;;;;;;;23.05;11.68;;;9.30;50.70;;;;;;4124317;28;20610;-77
2022/03/22 09:42:32;;;;;;;20.55;10.57;;;9.40;50.80;;;;;;4125715;28;20361;-78
2022/03/22 09:44:33;;;;;;;24.63;11.77;;;9.50;50.80;;;;;;4094285;28;20035;-78
2022/03/22 09:46:33;;;;;;;24.83;12.02;;;9.50;50.50;;;;;;4125582;28;20043;-78
2022/03/22 09:48:35;;;;;;;21.83;10.93;;;9.60;50.00;;;;;;4106331;28;20030;-78
2022/03/22 09:53:01;;;;;;;20.13;11.23;;;9.70;49.90;;;;;;4125937;28;20435;-78
2022/03/22 09:55:06;;;;;;;22.90;11.63;;;9.70;49.90;;;;;;4145694;28;20076;-78
2022/03/22 09:57:07;;;;;;;23.13;10.70;;;9.80;49.00;;;;;;4130030;28;20037;-78
2022/03/22 09:59:08;;;;;;;23.48;12.40;;;9.80;49.50;;;;;;4128649;28;20491;-78
2022/03/22 10:01:10;;;;;;;23.73;12.20;;;9.90;49.30;;;;;;4129795;28;20027;-78
2022/03/22 10:03:20;;;;;;;16.75;9.85;;;9.90;49.40;;;;;;4125052;28;20548;-78
2022/03/22 10:05:22;;;;;;;24.52;11.85;;;10.00;48.70;;;;;;4121147;28;20984;-78
2022/03/22 10:07:23;;;;;;;19.63;11.52;;;10.00;49.00;;;;;;4126403;28;20114;-78
2022/03/22 10:09:31;;;;;;;29.10;11.00;;;10.10;48.50;;;;;;4113942;28;20066;-78
2022/03/22 10:11:42;;;;;;;18.60;11.45;;;10.10;48.20;;;;;;4125313;28;20062;-78
2022/03/22 10:13:52;;;;;;;29.90;11.88;;;10.20;48.00;;;;;;4126112;28;20030;-78
2022/03/22 10:16:03;;;;;;;26.02;12.27;;;10.30;47.90;;;;;;4129070;28;20045;-78
2022/03/22 10:18:08;;;;;;;25.95;13.35;;;10.30;47.90;;;;;;4129859;28;20488;-78
2022/03/22 10:20:23;;;;;;;22.35;12.85;;;10.30;48.20;;;;;;4143955;28;20415;-78
2022/03/22 10:22:24;;;;;;;25.25;12.65;;;10.40;48.40;;;;;;4149057;28;20025;-78
2022/03/22 10:24:26;;;;;;;25.55;12.63;;;10.50;48.40;;;;;;4141450;28;20506;-78
2022/03/22 10:26:33;;;;;;;21.35;11.95;;;10.50;48.00;;;;;;4109556;28;20070;-78
2022/03/22 10:28:36;;;;;;;31.77;12.00;;;10.60;47.50;;;;;;4126041;28;20098;-78
2022/03/22 10:30:38;;;;;;;25.90;11.52;;;10.60;46.40;;;;;;4145807;28;20022;-78
2022/03/22 10:32:40;;;;;;;20.50;11.18;;;10.70;47.10;;;;;;4126707;28;20026;-78
2022/03/22 10:34:42;;;;;;;26.65;11.95;;;10.80;47.50;;;;;;4125108;28;20601;-78
2022/03/22 10:36:50;;;;;;;22.17;11.35;;;10.80;47.60;;;;;;4127051;28;20096;-78
2022/03/22 10:38:55;;;;;;;22.00;12.38;;;10.90;47.50;;;;;;4124142;28;20042;-78
2022/03/22 10:40:56;;;;;;;24.20;12.98;;;10.90;47.90;;;;;;4129175;28;20085;-78
2022/03/22 10:43:07;;;;;;;31.17;13.13;;;11.00;47.90;;;;;;4125684;28;20523;-78
2022/03/22 10:45:08;;;;;;;26.67;13.80;;;11.00;48.10;;;;;;4125571;28;20046;-78
2022/03/22 10:47:08;;;;;;;23.52;13.57;;;11.00;48.40;;;;;;4131493;28;20454;-78
2022/03/22 10:49:12;;;;;;;26.98;13.95;;;11.00;48.60;;;;;;4122531;28;20026;-78
2022/03/22 10:51:15;;;;;;;26.25;12.52;;;11.10;48.60;;;;;;4110050;28;20414;-78
2022/03/22 10:53:17;;;;;;;21.73;12.45;;;11.10;48.40;;;;;;4125377;28;20026;-78
2022/03/22 10:55:21;;;;;;;24.38;11.85;;;11.20;48.30;;;;;;4140033;28;20042;-79
2022/03/22 10:57:29;;;;;;;23.25;11.05;;;11.10;48.10;;;;;;4124627;28;20022;-78
2022/03/22 10:59:29;;;;;;;20.27;11.98;;;11.10;47.80;;;;;;4137503;28;20038;-78
2022/03/22 11:01:30;;;;;;;23.83;12.07;;;11.20;47.20;;;;;;4108544;28;20030;-78
2022/03/22 11:03:32;;;;;;;20.63;12.05;;;11.20;47.10;;;;;;4114957;28;20038;-78
2022/03/22 11:05:32;;;;;;;21.05;11.43;;;11.20;46.90;;;;;;4128444;28;20057;-78